Time;durP1;ratioP1;P1;durP2;ratioP2;P2;SDS_P1;SDS_P2;PMS_P1;PMS_P2;Temp;Humidity;BMP_temperature;BMP_pressure;BME280_temperature;BME280_humidity;BME280_pressure;Samples;Min_cycle;Max_cycle;Signal;HPM_P1;HPM_P2
2023/09/25 06:45:51;;;;;;;;;;;19.60;99.90;;;;;;2619093;54;21463;-71
2023/09/25 06:48:21;;;;;;;;;;;12.90;99.90;;;;;;2628011;54;19950;-69
2023/09/25 06:50:51;;;;;;;;;;;12.80;99.90;;;;;;2621826;54;19947;-70
2023/09/25 06:53:20;;;;;;;;;;;12.90;99.90;;;;;;2625306;54;19942;-70
2023/09/25 06:55:50;;;;;;;;;;;12.90;99.90;;;;;;2623360;54;20019;-69
2023/09/25 06:58:20;;;;;;;;;;;13.00;99.90;;;;;;2624254;54;19946;-68
2023/09/25 07:00:52;;;;;;;;;;;13.10;99.90;;;;;;2619282;39;20371;-69
2023/09/25 07:03:26;;;;;;;;;;;13.20;99.90;;;;;;2616639;54;20526;-68
2023/09/25 07:05:56;;;;;;;;;;;13.20;99.90;;;;;;2611249;54;20678;-69
2023/09/25 07:08:27;;;;;;;;;;;13.20;99.90;;;;;;2613451;54;20059;-70
2023/09/25 07:10:58;;;;;;;;;;;13.30;99.90;;;;;;2614703;54;19994;-70
2023/09/25 07:13:27;;;;;;;;;;;13.40;99.90;;;;;;2615417;39;20433;-71
2023/09/25 07:16:08;;;;;;;;;;;13.40;99.90;;;;;;2614603;54;19946;-70
2023/09/25 07:18:39;;;;;;;;;;;13.50;99.90;;;;;;2615221;54;20439;-72
2023/09/25 07:21:09;;;;;;;;;;;13.40;99.90;;;;;;2614398;47;19993;-70
2023/09/25 07:23:38;;;;;;;;;;;13.40;99.90;;;;;;2615199;47;20031;-70
2023/09/25 07:26:09;;;;;;;;;;;13.50;99.90;;;;;;2614534;47;19946;-70
2023/09/25 07:28:39;;;;;;;;;;;13.50;99.90;;;;;;2614656;54;19950;-67
2023/09/25 07:31:12;;;;;;;;;;;13.70;99.90;;;;;;2614222;47;19947;-68
2023/09/25 07:33:43;;;;;;;;;;;13.70;99.90;;;;;;2614917;54;19946;-69
2023/09/25 07:36:12;;;;;;;;;;;13.80;99.90;;;;;;2614277;54;20480;-67
2023/09/25 07:38:42;;;;;;;;;;;14.00;99.90;;;;;;2614649;54;20054;-69
2023/09/25 07:41:12;;;;;;;;;;;14.00;99.90;;;;;;2614207;39;20367;-68
2023/09/25 07:43:42;;;;;;;;;;;14.10;99.90;;;;;;2615437;39;20581;-69
2023/09/25 07:46:31;;;;;;;;;;;14.10;99.90;;;;;;2613725;54;19950;-68
2023/09/25 07:49:02;;;;;;;;;;;14.20;99.90;;;;;;2614473;54;19953;-69
2023/09/25 07:51:32;;;;;;;;;;;15.00;99.90;;;;;;2614259;54;20456;-69
2023/09/25 07:54:03;;;;;;;;;;;14.30;99.90;;;;;;2616490;54;19953;-70
2023/09/25 07:56:33;;;;;;;;;;;14.40;99.90;;;;;;2617803;47;19951;-71
2023/09/25 07:59:02;;;;;;;;;;;14.40;99.90;;;;;;2613809;47;19946;-70
2023/09/25 08:01:37;;;;;;;;;;;14.50;99.90;;;;;;2613856;47;19973;-70
2023/09/25 08:04:07;;;;;;;;;;;14.60;99.90;;;;;;2613204;54;21014;-69
2023/09/25 08:06:37;;;;;;;;;;;14.70;99.90;;;;;;2614095;54;19950;-68
2023/09/25 08:09:07;;;;;;;;;;;14.80;99.90;;;;;;2613562;54;19954;-70
2023/09/25 08:11:36;;;;;;;;;;;15.00;99.90;;;;;;2614444;39;20184;-71
2023/09/25 08:14:06;;;;;;;;;;;15.00;99.90;;;;;;2615809;54;19946;-71
2023/09/25 08:16:38;;;;;;;;;;;15.10;99.90;;;;;;2614850;47;19957;-70
2023/09/25 08:19:08;;;;;;;;;;;15.20;99.90;;;;;;2614340;54;19951;-68
2023/09/25 08:21:38;;;;;;;;;;;15.30;99.90;;;;;;2613052;54;19962;-68
2023/09/25 08:24:08;;;;;;;;;;;15.40;99.90;;;;;;2613338;54;20450;-69
2023/09/25 08:26:39;;;;;;;;;;;15.50;99.90;;;;;;2613880;39;20114;-70
2023/09/25 08:29:09;;;;;;;;;;;15.60;99.90;;;;;;2613731;54;20439;-70
2023/09/25 08:31:41;;;;;;;;;;;15.80;99.90;;;;;;2613788;39;20334;-68
2023/09/25 08:34:11;;;;;;;;;;;16.10;99.90;;;;;;2614062;54;19997;-69
2023/09/25 08:36:41;;;;;;;;;;;16.00;99.90;;;;;;2614214;54;19973;-70
2023/09/25 08:39:13;;;;;;;;;;;16.20;99.90;;;;;;2614724;54;19946;-68
2023/09/25 08:41:44;;;;;;;;;;;16.30;99.90;;;;;;2613831;54;20078;-70
2023/09/25 08:44:15;;;;;;;;;;;16.40;99.90;;;;;;2613334;54;19946;-71
2023/09/25 08:46:48;;;;;;;;;;;16.50;99.90;;;;;;2614966;54;19946;-68
2023/09/25 08:49:18;;;;;;;;;;;16.70;99.90;;;;;;2615689;39;20363;-68
2023/09/25 08:51:48;;;;;;;;;;;16.80;99.90;;;;;;2615179;54;19947;-71
2023/09/25 08:54:18;;;;;;;;;;;16.90;99.90;;;;;;2614631;47;19946;-70
2023/09/25 08:56:47;;;;;;;;;;;17.10;99.90;;;;;;2614779;54;19950;-69
2023/09/25 08:59:17;;;;;;;;;;;17.20;99.90;;;;;;2615097;47;19951;-69
2023/09/25 09:01:51;;;;;;;;;;;17.30;99.90;;;;;;2616059;54;19946;-70
2023/09/25 09:04:24;;;;;;;;;;;17.40;99.90;;;;;;2615131;47;20002;-68
2023/09/25 09:06:54;;;;;;;;;;;17.50;99.90;;;;;;2615038;54;19953;-70
2023/09/25 09:09:24;;;;;;;;;;;17.70;99.90;;;;;;2615243;54;19953;-69
2023/09/25 09:11:55;;;;;;;;;;;17.80;99.90;;;;;;2615209;54;19946;-69
2023/09/25 09:14:42;;;;;;;;;;;17.90;99.90;;;;;;2614807;47;19946;-70
2023/09/25 09:17:14;;;;;;;;;;;18.00;99.90;;;;;;2613884;54;19946;-69
2023/09/25 09:19:52;;;;;;;;;;;18.20;99.90;;;;;;2614558;47;19946;-70
2023/09/25 09:22:22;;;;;;;;;;;18.20;99.90;;;;;;2615407;54;20383;-71
2023/09/25 09:24:52;;;;;;;;;;;18.40;99.90;;;;;;2622197;47;20962;-72
2023/09/25 09:27:22;;;;;;;;;;;18.40;99.90;;;;;;2614742;47;19946;-72
2023/09/25 09:29:56;;;;;;;;;;;18.50;99.90;;;;;;2614789;54;19994;-71
2023/09/25 09:32:29;;;;;;;;;;;18.60;99.90;;;;;;2617685;54;20012;-71
2023/09/25 09:34:59;;;;;;;;;;;18.70;99.90;;;;;;2617846;47;19946;-71
2023/09/25 09:37:29;;;;;;;;;;;18.80;99.90;;;;;;2615316;47;19974;-71
2023/09/25 09:39:58;;;;;;;;;;;18.90;99.90;;;;;;2620448;54;19951;-70
2023/09/25 09:42:31;;;;;;;;;;;19.00;99.90;;;;;;2625115;47;20026;-71
2023/09/25 09:45:02;;;;;;;;;;;19.10;99.90;;;;;;2620299;54;19947;-74
2023/09/25 09:47:35;;;;;;;;;;;19.20;99.90;;;;;;2614779;54;19953;-72
2023/09/25 09:50:05;;;;;;;;;;;19.30;99.90;;;;;;2615196;54;19947;-72
2023/09/25 09:52:36;;;;;;;;;;;19.30;99.90;;;;;;2614836;54;19953;-71
2023/09/25 09:55:07;;;;;;;;;;;19.40;99.90;;;;;;2614497;54;20066;-73
2023/09/25 09:57:37;;;;;;;;;;;19.50;99.90;;;;;;2615616;47;19951;-71
2023/09/25 10:00:07;;;;;;;;;;;19.50;99.90;;;;;;2614512;54;20488;-71
2023/09/25 10:02:41;;;;;;;;;;;19.60;99.90;;;;;;2615024;47;19954;-70
2023/09/25 10:05:13;;;;;;;;;;;19.70;99.90;;;;;;2615471;54;19942;-71
2023/09/25 10:08:05;;;;;;;;;;;19.80;99.90;;;;;;2617644;54;19947;-71
2023/09/25 10:10:35;;;;;;;;;;;19.90;99.90;;;;;;2614837;46;19947;-70
2023/09/25 10:13:08;;;;;;;;;;;20.00;99.90;;;;;;2617613;54;19947;-72
2023/09/25 10:15:39;;;;;;;;;;;20.10;99.90;;;;;;2618307;54;19947;-72
2023/09/25 10:18:11;;;;;;;;;;;20.20;99.90;;;;;;2618871;54;19958;-69
2023/09/25 10:20:41;;;;;;;;;;;20.30;99.90;;;;;;2618664;47;20057;-71
2023/09/25 10:23:12;;;;;;;;;;;20.40;99.90;;;;;;2618529;47;19946;-70
2023/09/25 10:25:50;;;;;;;;;;;20.40;99.90;;;;;;2618960;54;19957;-73
2023/09/25 10:28:23;;;;;;;;;;;20.50;99.90;;;;;;2618900;54;19946;-70
2023/09/25 10:30:53;;;;;;;;;;;20.60;99.90;;;;;;2625423;54;19951;-69
2023/09/25 10:33:28;;;;;;;;;;;20.70;99.90;;;;;;2628320;39;20235;-71
2023/09/25 10:36:03;;;;;;;;;;;20.70;99.90;;;;;;2621266;54;19947;-72
2023/09/25 10:38:34;;;;;;;;;;;20.80;99.90;;;;;;2618837;54;19939;-72
2023/09/25 10:41:05;;;;;;;;;;;21.00;99.90;;;;;;2620394;54;19958;-71
2023/09/25 10:43:35;;;;;;;;;;;20.90;99.90;;;;;;2618517;54;19994;-71
2023/09/25 10:46:05;;;;;;;;;;;21.00;99.90;;;;;;2618232;54;19939;-71
2023/09/25 10:48:38;;;;;;;;;;;21.10;99.90;;;;;;2619295;54;20002;-74
2023/09/25 10:51:08;;;;;;;;;;;21.10;99.90;;;;;;2619965;47;19953;-74
2023/09/25 10:53:38;;;;;;;;;;;21.20;99.90;;;;;;2619405;54;19946;-74
2023/09/25 10:56:08;;;;;;;;;;;21.20;99.90;;;;;;2621289;39;20345;-72
